sensor_id;sensor_type;location;lat;lon;timestamp;temperature;humidity
20866;DHT22;10593;48.398;10.698;2023-01-13T00:01:22;9.60;56.20
20866;DHT22;10593;48.398;10.698;2023-01-13T00:03:49;9.60;56.20
20866;DHT22;10593;48.398;10.698;2023-01-13T00:06:18;9.50;56.10
20866;DHT22;10593;48.398;10.698;2023-01-13T00:08:49;9.50;56.10
20866;DHT22;10593;48.398;10.698;2023-01-13T00:11:16;9.50;56.10
20866;DHT22;10593;48.398;10.698;2023-01-13T00:13:44;9.50;56.10
20866;DHT22;10593;48.398;10.698;2023-01-13T00:16:13;9.50;56.10
20866;DHT22;10593;48.398;10.698;2023-01-13T00:18:42;9.50;56.10
20866;DHT22;10593;48.398;10.698;2023-01-13T00:21:13;9.50;56.10
20866;DHT22;10593;48.398;10.698;2023-01-13T00:23:42;9.50;56.10
20866;DHT22;10593;48.398;10.698;2023-01-13T00:28:50;9.50;56.10
20866;DHT22;10593;48.398;10.698;2023-01-13T00:31:20;9.50;56.10
20866;DHT22;10593;48.398;10.698;2023-01-13T00:33:46;9.50;56.10
20866;DHT22;10593;48.398;10.698;2023-01-13T00:36:14;9.50;56.10
20866;DHT22;10593;48.398;10.698;2023-01-13T00:38:41;9.50;56.00
20866;DHT22;10593;48.398;10.698;2023-01-13T00:41:13;9.50;56.00
20866;DHT22;10593;48.398;10.698;2023-01-13T00:43:40;9.50;56.00
20866;DHT22;10593;48.398;10.698;2023-01-13T00:46:08;9.50;56.00
20866;DHT22;10593;48.398;10.698;2023-01-13T00:48:35;9.50;56.00
20866;DHT22;10593;48.398;10.698;2023-01-13T00:53:41;9.50;56.00
20866;DHT22;10593;48.398;10.698;2023-01-13T00:56:21;9.50;56.00
20866;DHT22;10593;48.398;10.698;2023-01-13T00:58:48;9.50;56.00
20866;DHT22;10593;48.398;10.698;2023-01-13T01:01:16;9.50;56.00
20866;DHT22;10593;48.398;10.698;2023-01-13T01:03:47;9.50;56.00
20866;DHT22;10593;48.398;10.698;2023-01-13T01:06:19;9.50;56.00
20866;DHT22;10593;48.398;10.698;2023-01-13T01:08:47;9.50;56.00
20866;DHT22;10593;48.398;10.698;2023-01-13T01:11:15;9.50;55.90
20866;DHT22;10593;48.398;10.698;2023-01-13T01:13:43;9.50;55.90
20866;DHT22;10593;48.398;10.698;2023-01-13T01:16:15;9.50;55.90
20866;DHT22;10593;48.398;10.698;2023-01-13T01:18:44;9.50;55.90
20866;DHT22;10593;48.398;10.698;2023-01-13T01:21:12;9.50;55.90
20866;DHT22;10593;48.398;10.698;2023-01-13T01:23:38;9.50;55.80
20866;DHT22;10593;48.398;10.698;2023-01-13T01:26:13;9.50;55.80
20866;DHT22;10593;48.398;10.698;2023-01-13T01:28:41;9.50;55.80
20866;DHT22;10593;48.398;10.698;2023-01-13T01:31:09;9.50;56.30
20866;DHT22;10593;48.398;10.698;2023-01-13T01:33:37;9.50;55.80
20866;DHT22;10593;48.398;10.698;2023-01-13T01:36:05;9.50;55.80
20866;DHT22;10593;48.398;10.698;2023-01-13T01:38:32;9.50;55.80
20866;DHT22;10593;48.398;10.698;2023-01-13T01:40:58;9.50;55.70
20866;DHT22;10593;48.398;10.698;2023-01-13T01:43:51;9.50;55.70
20866;DHT22;10593;48.398;10.698;2023-01-13T01:46:40;9.50;55.80
20866;DHT22;10593;48.398;10.698;2023-01-13T01:49:28;9.50;55.70
20866;DHT22;10593;48.398;10.698;2023-01-13T01:52:05;9.50;55.70
20866;DHT22;10593;48.398;10.698;2023-01-13T01:57:34;9.40;55.60
20866;DHT22;10593;48.398;10.698;2023-01-13T02:00:08;9.50;55.70
20866;DHT22;10593;48.398;10.698;2023-01-13T02:02:35;9.50;55.70
20866;DHT22;10593;48.398;10.698;2023-01-13T02:05:01;9.50;55.70
20866;DHT22;10593;48.398;10.698;2023-01-13T02:07:31;9.50;55.60
20866;DHT22;10593;48.398;10.698;2023-01-13T02:10:02;9.40;55.50
20866;DHT22;10593;48.398;10.698;2023-01-13T02:12:30;9.50;55.60
20866;DHT22;10593;48.398;10.698;2023-01-13T02:15:17;9.50;55.50
20866;DHT22;10593;48.398;10.698;2023-01-13T02:27:52;9.50;55.40
20866;DHT22;10593;48.398;10.698;2023-01-13T02:34:04;9.50;55.40
20866;DHT22;10593;48.398;10.698;2023-01-13T02:39:24;9.50;55.40
20866;DHT22;10593;48.398;10.698;2023-01-13T02:42:06;9.50;55.20
20866;DHT22;10593;48.398;10.698;2023-01-13T02:45:00;9.50;55.20
20866;DHT22;10593;48.398;10.698;2023-01-13T02:47:35;9.50;55.10
20866;DHT22;10593;48.398;10.698;2023-01-13T02:50:12;9.50;55.10
20866;DHT22;10593;48.398;10.698;2023-01-13T02:52:49;9.50;55.00
20866;DHT22;10593;48.398;10.698;2023-01-13T02:55:22;9.50;55.00
20866;DHT22;10593;48.398;10.698;2023-01-13T02:57:54;9.50;55.10
20866;DHT22;10593;48.398;10.698;2023-01-13T03:00:24;9.50;55.00
20866;DHT22;10593;48.398;10.698;2023-01-13T03:02:51;9.50;55.00
20866;DHT22;10593;48.398;10.698;2023-01-13T03:05:17;9.50;55.00
20866;DHT22;10593;48.398;10.698;2023-01-13T03:11:02;9.50;55.00
20866;DHT22;10593;48.398;10.698;2023-01-13T03:13:44;9.50;54.80
20866;DHT22;10593;48.398;10.698;2023-01-13T03:19:35;9.50;54.80
20866;DHT22;10593;48.398;10.698;2023-01-13T03:24:59;9.60;54.90
20866;DHT22;10593;48.398;10.698;2023-01-13T03:30:20;9.60;54.60
20866;DHT22;10593;48.398;10.698;2023-01-13T03:36:10;9.60;54.60
20866;DHT22;10593;48.398;10.698;2023-01-13T03:38:51;9.60;54.70
20866;DHT22;10593;48.398;10.698;2023-01-13T03:41:43;9.60;55.00
20866;DHT22;10593;48.398;10.698;2023-01-13T03:47:10;9.60;54.50
20866;DHT22;10593;48.398;10.698;2023-01-13T03:52:25;9.60;54.40
20866;DHT22;10593;48.398;10.698;2023-01-13T03:55:08;9.60;54.40
20866;DHT22;10593;48.398;10.698;2023-01-13T03:57:43;9.60;54.40
20866;DHT22;10593;48.398;10.698;2023-01-13T04:00:19;9.60;54.40
20866;DHT22;10593;48.398;10.698;2023-01-13T04:03:25;9.60;54.40
20866;DHT22;10593;48.398;10.698;2023-01-13T04:05:59;9.60;54.30
20866;DHT22;10593;48.398;10.698;2023-01-13T04:08:47;9.60;54.30
20866;DHT22;10593;48.398;10.698;2023-01-13T04:11:34;9.60;54.20
20866;DHT22;10593;48.398;10.698;2023-01-13T04:14:07;9.60;54.10
20866;DHT22;10593;48.398;10.698;2023-01-13T04:16:35;9.60;54.20
20866;DHT22;10593;48.398;10.698;2023-01-13T04:19:02;9.60;54.30
20866;DHT22;10593;48.398;10.698;2023-01-13T04:21:28;9.60;54.30
20866;DHT22;10593;48.398;10.698;2023-01-13T04:23:54;9.70;54.30
20866;DHT22;10593;48.398;10.698;2023-01-13T04:26:20;9.60;54.20
20866;DHT22;10593;48.398;10.698;2023-01-13T04:28:47;9.70;54.30
20866;DHT22;10593;48.398;10.698;2023-01-13T04:31:13;9.60;54.20
20866;DHT22;10593;48.398;10.698;2023-01-13T04:33:39;9.70;54.30
20866;DHT22;10593;48.398;10.698;2023-01-13T04:36:05;9.70;54.30
20866;DHT22;10593;48.398;10.698;2023-01-13T04:38:31;9.70;54.40
20866;DHT22;10593;48.398;10.698;2023-01-13T04:40:57;9.70;54.30
20866;DHT22;10593;48.398;10.698;2023-01-13T04:43:22;9.70;54.40
20866;DHT22;10593;48.398;10.698;2023-01-13T04:45:48;9.70;54.30
20866;DHT22;10593;48.398;10.698;2023-01-13T04:48:14;9.70;54.30
20866;DHT22;10593;48.398;10.698;2023-01-13T04:50:40;9.70;54.30
20866;DHT22;10593;48.398;10.698;2023-01-13T04:53:07;9.70;54.30
20866;DHT22;10593;48.398;10.698;2023-01-13T04:55:32;9.70;54.30
20866;DHT22;10593;48.398;10.698;2023-01-13T04:58:01;9.80;54.30
20866;DHT22;10593;48.398;10.698;2023-01-13T05:00:31;9.70;54.20
20866;DHT22;10593;48.398;10.698;2023-01-13T05:02:57;9.70;54.30
20866;DHT22;10593;48.398;10.698;2023-01-13T05:05:24;9.80;54.30
20866;DHT22;10593;48.398;10.698;2023-01-13T05:07:50;9.70;54.30
20866;DHT22;10593;48.398;10.698;2023-01-13T05:10:16;9.80;54.30
20866;DHT22;10593;48.398;10.698;2023-01-13T05:12:42;9.80;54.30
20866;DHT22;10593;48.398;10.698;2023-01-13T05:15:26;9.80;54.40
20866;DHT22;10593;48.398;10.698;2023-01-13T05:18:10;9.80;54.40
20866;DHT22;10593;48.398;10.698;2023-01-13T05:20:37;9.80;54.30
20866;DHT22;10593;48.398;10.698;2023-01-13T05:23:02;9.80;54.30
20866;DHT22;10593;48.398;10.698;2023-01-13T05:25:47;9.80;54.40
20866;DHT22;10593;48.398;10.698;2023-01-13T05:28:14;9.80;54.40
20866;DHT22;10593;48.398;10.698;2023-01-13T05:30:42;9.80;54.40
20866;DHT22;10593;48.398;10.698;2023-01-13T05:33:15;9.80;54.40
20866;DHT22;10593;48.398;10.698;2023-01-13T05:35:44;9.80;54.40
20866;DHT22;10593;48.398;10.698;2023-01-13T05:38:11;9.80;54.40
20866;DHT22;10593;48.398;10.698;2023-01-13T05:40:39;9.80;54.50
20866;DHT22;10593;48.398;10.698;2023-01-13T05:43:24;9.80;54.50
20866;DHT22;10593;48.398;10.698;2023-01-13T05:45:59;9.90;54.60
20866;DHT22;10593;48.398;10.698;2023-01-13T05:48:28;9.80;54.50
20866;DHT22;10593;48.398;10.698;2023-01-13T05:50:55;9.80;54.50
20866;DHT22;10593;48.398;10.698;2023-01-13T05:53:21;9.90;54.60
20866;DHT22;10593;48.398;10.698;2023-01-13T05:55:48;9.90;54.60
20866;DHT22;10593;48.398;10.698;2023-01-13T05:58:16;9.90;54.60
20866;DHT22;10593;48.398;10.698;2023-01-13T06:00:43;9.90;54.70
20866;DHT22;10593;48.398;10.698;2023-01-13T06:03:10;9.90;54.70
20866;DHT22;10593;48.398;10.698;2023-01-13T06:05:36;9.90;54.70
20866;DHT22;10593;48.398;10.698;2023-01-13T06:08:03;9.90;54.70
20866;DHT22;10593;48.398;10.698;2023-01-13T06:10:31;9.90;54.70
20866;DHT22;10593;48.398;10.698;2023-01-13T06:12:58;9.90;54.80
20866;DHT22;10593;48.398;10.698;2023-01-13T06:15:24;9.90;54.80
20866;DHT22;10593;48.398;10.698;2023-01-13T06:17:50;9.90;54.90
20866;DHT22;10593;48.398;10.698;2023-01-13T06:20:16;10.00;54.00
20866;DHT22;10593;48.398;10.698;2023-01-13T06:22:46;10.00;54.10
20866;DHT22;10593;48.398;10.698;2023-01-13T06:28:09;9.90;55.00
20866;DHT22;10593;48.398;10.698;2023-01-13T06:30:41;9.90;55.00
20866;DHT22;10593;48.398;10.698;2023-01-13T06:33:18;9.90;55.10
20866;DHT22;10593;48.398;10.698;2023-01-13T06:35:54;10.00;54.40
20866;DHT22;10593;48.398;10.698;2023-01-13T06:38:25;10.00;54.40
20866;DHT22;10593;48.398;10.698;2023-01-13T06:40:54;10.00;55.00
20866;DHT22;10593;48.398;10.698;2023-01-13T06:43:20;10.00;54.50
20866;DHT22;10593;48.398;10.698;2023-01-13T06:45:52;10.00;54.50
20866;DHT22;10593;48.398;10.698;2023-01-13T06:48:22;10.00;54.50
20866;DHT22;10593;48.398;10.698;2023-01-13T06:50:51;10.00;54.50
20866;DHT22;10593;48.398;10.698;2023-01-13T06:53:17;10.00;54.50
20866;DHT22;10593;48.398;10.698;2023-01-13T06:55:43;10.00;54.50
20866;DHT22;10593;48.398;10.698;2023-01-13T06:58:08;10.00;54.50
20866;DHT22;10593;48.398;10.698;2023-01-13T07:00:34;10.00;54.60
20866;DHT22;10593;48.398;10.698;2023-01-13T07:03:11;10.00;54.60
20866;DHT22;10593;48.398;10.698;2023-01-13T07:05:39;10.00;54.80
20866;DHT22;10593;48.398;10.698;2023-01-13T07:08:07;10.00;54.80
20866;DHT22;10593;48.398;10.698;2023-01-13T07:10:34;10.00;54.90
20866;DHT22;10593;48.398;10.698;2023-01-13T07:13:01;10.10;55.00
20866;DHT22;10593;48.398;10.698;2023-01-13T07:16:00;10.00;55.00
20866;DHT22;10593;48.398;10.698;2023-01-13T07:18:29;10.10;55.00
20866;DHT22;10593;48.398;10.698;2023-01-13T07:21:01;10.00;55.00
20866;DHT22;10593;48.398;10.698;2023-01-13T07:23:33;10.10;55.10
20866;DHT22;10593;48.398;10.698;2023-01-13T07:26:00;10.10;55.10
20866;DHT22;10593;48.398;10.698;2023-01-13T07:28:27;10.00;55.00
20866;DHT22;10593;48.398;10.698;2023-01-13T07:30:54;10.10;55.10
20866;DHT22;10593;48.398;10.698;2023-01-13T07:33:20;10.00;55.00
20866;DHT22;10593;48.398;10.698;2023-01-13T07:35:47;10.10;55.20
20866;DHT22;10593;48.398;10.698;2023-01-13T07:38:13;10.10;55.20
20866;DHT22;10593;48.398;10.698;2023-01-13T07:40:40;10.10;55.20
20866;DHT22;10593;48.398;10.698;2023-01-13T07:43:06;10.10;55.20
20866;DHT22;10593;48.398;10.698;2023-01-13T07:46:00;10.10;55.20
20866;DHT22;10593;48.398;10.698;2023-01-13T07:48:31;10.10;55.20
20866;DHT22;10593;48.398;10.698;2023-01-13T07:51:02;10.10;55.30
20866;DHT22;10593;48.398;10.698;2023-01-13T07:53:29;10.10;55.30
20866;DHT22;10593;48.398;10.698;2023-01-13T07:55:55;10.10;55.30
20866;DHT22;10593;48.398;10.698;2023-01-13T07:58:22;10.20;55.40
20866;DHT22;10593;48.398;10.698;2023-01-13T08:00:49;10.20;55.40
20866;DHT22;10593;48.398;10.698;2023-01-13T08:03:14;10.20;55.40
20866;DHT22;10593;48.398;10.698;2023-01-13T08:05:40;10.20;55.30
20866;DHT22;10593;48.398;10.698;2023-01-13T08:08:09;10.20;55.40
20866;DHT22;10593;48.398;10.698;2023-01-13T08:10:35;10.20;55.40
20866;DHT22;10593;48.398;10.698;2023-01-13T08:13:10;10.20;55.40
20866;DHT22;10593;48.398;10.698;2023-01-13T08:15:47;10.20;55.40
20866;DHT22;10593;48.398;10.698;2023-01-13T08:18:15;10.20;55.40
20866;DHT22;10593;48.398;10.698;2023-01-13T08:20:42;10.20;55.50
20866;DHT22;10593;48.398;10.698;2023-01-13T08:23:08;10.20;55.50
20866;DHT22;10593;48.398;10.698;2023-01-13T08:25:34;10.20;55.50
20866;DHT22;10593;48.398;10.698;2023-01-13T08:27:59;10.30;55.60
20866;DHT22;10593;48.398;10.698;2023-01-13T08:30:26;10.20;55.50
20866;DHT22;10593;48.398;10.698;2023-01-13T08:32:53;10.30;55.70
20866;DHT22;10593;48.398;10.698;2023-01-13T08:35:19;10.30;55.70
20866;DHT22;10593;48.398;10.698;2023-01-13T08:37:46;10.30;55.70
20866;DHT22;10593;48.398;10.698;2023-01-13T08:40:14;10.30;55.70
20866;DHT22;10593;48.398;10.698;2023-01-13T08:42:40;10.30;55.70
20866;DHT22;10593;48.398;10.698;2023-01-13T08:45:07;10.30;55.70
20866;DHT22;10593;48.398;10.698;2023-01-13T08:47:34;10.30;55.70
20866;DHT22;10593;48.398;10.698;2023-01-13T08:49:59;10.40;55.70
20866;DHT22;10593;48.398;10.698;2023-01-13T08:52:25;10.40;55.70
20866;DHT22;10593;48.398;10.698;2023-01-13T08:54:51;10.40;55.70
20866;DHT22;10593;48.398;10.698;2023-01-13T08:57:18;10.40;55.70
20866;DHT22;10593;48.398;10.698;2023-01-13T08:59:44;10.40;55.70
20866;DHT22;10593;48.398;10.698;2023-01-13T09:02:17;10.50;55.80
20866;DHT22;10593;48.398;10.698;2023-01-13T09:04:45;10.50;55.80
20866;DHT22;10593;48.398;10.698;2023-01-13T09:07:10;10.50;55.80
20866;DHT22;10593;48.398;10.698;2023-01-13T09:09:37;10.50;55.80
20866;DHT22;10593;48.398;10.698;2023-01-13T09:12:03;10.50;55.70
20866;DHT22;10593;48.398;10.698;2023-01-13T09:14:49;10.50;55.70
20866;DHT22;10593;48.398;10.698;2023-01-13T09:17:15;10.50;55.70
20866;DHT22;10593;48.398;10.698;2023-01-13T09:19:41;10.60;55.90
20866;DHT22;10593;48.398;10.698;2023-01-13T09:22:09;10.60;55.90
20866;DHT22;10593;48.398;10.698;2023-01-13T09:24:39;10.60;55.90
20866;DHT22;10593;48.398;10.698;2023-01-13T09:27:05;10.60;55.90
20866;DHT22;10593;48.398;10.698;2023-01-13T09:29:30;10.60;55.90
20866;DHT22;10593;48.398;10.698;2023-01-13T09:31:56;10.60;55.90
20866;DHT22;10593;48.398;10.698;2023-01-13T09:34:22;10.60;55.90
20866;DHT22;10593;48.398;10.698;2023-01-13T09:37:07;10.70;56.00
20866;DHT22;10593;48.398;10.698;2023-01-13T09:39:34;10.70;56.00
20866;DHT22;10593;48.398;10.698;2023-01-13T09:45:28;10.70;56.00
20866;DHT22;10593;48.398;10.698;2023-01-13T09:48:29;10.70;56.00
20866;DHT22;10593;48.398;10.698;2023-01-13T09:51:09;10.70;56.00
20866;DHT22;10593;48.398;10.698;2023-01-13T09:53:51;10.80;56.10
20866;DHT22;10593;48.398;10.698;2023-01-13T09:56:22;10.80;56.20
20866;DHT22;10593;48.398;10.698;2023-01-13T09:58:49;10.80;56.20
20866;DHT22;10593;48.398;10.698;2023-01-13T10:01:31;10.80;56.20
20866;DHT22;10593;48.398;10.698;2023-01-13T10:04:09;10.90;56.40
20866;DHT22;10593;48.398;10.698;2023-01-13T10:06:37;10.90;56.30
20866;DHT22;10593;48.398;10.698;2023-01-13T10:09:12;10.90;56.20
20866;DHT22;10593;48.398;10.698;2023-01-13T10:11:44;10.90;56.20
20866;DHT22;10593;48.398;10.698;2023-01-13T10:14:38;10.90;56.20
20866;DHT22;10593;48.398;10.698;2023-01-13T10:17:35;11.00;56.20
20866;DHT22;10593;48.398;10.698;2023-01-13T10:20:46;11.00;56.20
20866;DHT22;10593;48.398;10.698;2023-01-13T10:28:52;11.10;56.10
20866;DHT22;10593;48.398;10.698;2023-01-13T10:31:22;11.10;56.10
20866;DHT22;10593;48.398;10.698;2023-01-13T10:33:58;11.10;56.10
20866;DHT22;10593;48.398;10.698;2023-01-13T10:36:25;11.10;56.00
20866;DHT22;10593;48.398;10.698;2023-01-13T10:38:51;11.20;56.10
20866;DHT22;10593;48.398;10.698;2023-01-13T10:41:22;11.20;56.00
20866;DHT22;10593;48.398;10.698;2023-01-13T10:46:34;11.20;56.00
20866;DHT22;10593;48.398;10.698;2023-01-13T10:52:01;11.20;56.00
20866;DHT22;10593;48.398;10.698;2023-01-13T10:54:29;11.20;56.00
20866;DHT22;10593;48.398;10.698;2023-01-13T10:57:17;11.30;56.10
20866;DHT22;10593;48.398;10.698;2023-01-13T10:59:45;11.30;56.20
20866;DHT22;10593;48.398;10.698;2023-01-13T11:02:30;11.30;56.20
20866;DHT22;10593;48.398;10.698;2023-01-13T11:05:04;11.30;56.20
20866;DHT22;10593;48.398;10.698;2023-01-13T11:07:50;11.30;56.20
20866;DHT22;10593;48.398;10.698;2023-01-13T11:18:51;11.30;56.40
20866;DHT22;10593;48.398;10.698;2023-01-13T11:22:00;11.40;56.40
20866;DHT22;10593;48.398;10.698;2023-01-13T11:24:57;11.40;56.40
20866;DHT22;10593;48.398;10.698;2023-01-13T11:27:49;11.40;56.40
20866;DHT22;10593;48.398;10.698;2023-01-13T11:35:51;11.40;56.40
20866;DHT22;10593;48.398;10.698;2023-01-13T11:38:33;11.50;56.50
20866;DHT22;10593;48.398;10.698;2023-01-13T11:41:19;11.50;56.50
20866;DHT22;10593;48.398;10.698;2023-01-13T11:46:35;11.50;56.40
20866;DHT22;10593;48.398;10.698;2023-01-13T11:49:01;11.50;56.40
20866;DHT22;10593;48.398;10.698;2023-01-13T11:54:25;11.60;56.30
20866;DHT22;10593;48.398;10.698;2023-01-13T11:57:16;11.60;56.20
20866;DHT22;10593;48.398;10.698;2023-01-13T12:00:32;11.60;56.00
20866;DHT22;10593;48.398;10.698;2023-01-13T12:03:26;11.60;56.20
20866;DHT22;10593;48.398;10.698;2023-01-13T12:08:36;11.70;56.20
20866;DHT22;10593;48.398;10.698;2023-01-13T12:11:26;11.70;56.20
20866;DHT22;10593;48.398;10.698;2023-01-13T12:14:16;11.70;56.00
20866;DHT22;10593;48.398;10.698;2023-01-13T12:16:55;11.70;56.00
20866;DHT22;10593;48.398;10.698;2023-01-13T12:19:26;11.70;55.90
20866;DHT22;10593;48.398;10.698;2023-01-13T12:22:15;11.70;55.90
20866;DHT22;10593;48.398;10.698;2023-01-13T12:25:02;11.70;55.90
20866;DHT22;10593;48.398;10.698;2023-01-13T12:27:50;11.70;55.90
20866;DHT22;10593;48.398;10.698;2023-01-13T12:30:51;11.70;56.00
20866;DHT22;10593;48.398;10.698;2023-01-13T12:39:22;11.70;55.90
20866;DHT22;10593;48.398;10.698;2023-01-13T12:42:00;11.70;55.70
20866;DHT22;10593;48.398;10.698;2023-01-13T12:47:40;11.80;55.70
20866;DHT22;10593;48.398;10.698;2023-01-13T12:52:58;11.80;55.70
20866;DHT22;10593;48.398;10.698;2023-01-13T12:55:33;11.80;55.70
20866;DHT22;10593;48.398;10.698;2023-01-13T13:06:00;11.90;55.30
20866;DHT22;10593;48.398;10.698;2023-01-13T13:08:51;11.90;55.20
20866;DHT22;10593;48.398;10.698;2023-01-13T13:11:34;11.80;55.10
20866;DHT22;10593;48.398;10.698;2023-01-13T13:19:58;11.70;55.10
20866;DHT22;10593;48.398;10.698;2023-01-13T13:27:48;11.70;55.20
20866;DHT22;10593;48.398;10.698;2023-01-13T13:30:28;11.70;55.40
20866;DHT22;10593;48.398;10.698;2023-01-13T13:33:11;11.60;55.20
20866;DHT22;10593;48.398;10.698;2023-01-13T13:42:17;11.50;55.00
20866;DHT22;10593;48.398;10.698;2023-01-13T13:45:21;11.50;55.00
20866;DHT22;10593;48.398;10.698;2023-01-13T13:50:56;11.40;55.00
20866;DHT22;10593;48.398;10.698;2023-01-13T13:53:34;11.40;55.00
20866;DHT22;10593;48.398;10.698;2023-01-13T13:56:22;11.40;55.00
20866;DHT22;10593;48.398;10.698;2023-01-13T13:58:51;11.30;55.00
20866;DHT22;10593;48.398;10.698;2023-01-13T14:01:25;11.30;55.00
20866;DHT22;10593;48.398;10.698;2023-01-13T14:04:19;11.30;55.00
20866;DHT22;10593;48.398;10.698;2023-01-13T14:06:55;11.30;55.00
20866;DHT22;10593;48.398;10.698;2023-01-13T14:09:24;11.30;55.10
20866;DHT22;10593;48.398;10.698;2023-01-13T14:11:58;11.30;55.20
20866;DHT22;10593;48.398;10.698;2023-01-13T14:14:25;11.30;55.20
20866;DHT22;10593;48.398;10.698;2023-01-13T14:16:51;11.20;55.20
20866;DHT22;10593;48.398;10.698;2023-01-13T14:19:28;11.20;55.20
20866;DHT22;10593;48.398;10.698;2023-01-13T14:22:00;11.20;55.20
20866;DHT22;10593;48.398;10.698;2023-01-13T14:24:29;11.20;55.30
20866;DHT22;10593;48.398;10.698;2023-01-13T14:27:12;11.20;55.20
20866;DHT22;10593;48.398;10.698;2023-01-13T14:29:40;11.20;55.30
20866;DHT22;10593;48.398;10.698;2023-01-13T14:32:07;11.20;55.30
20866;DHT22;10593;48.398;10.698;2023-01-13T14:34:33;11.20;55.20
20866;DHT22;10593;48.398;10.698;2023-01-13T14:37:01;11.20;55.20
20866;DHT22;10593;48.398;10.698;2023-01-13T14:39:35;11.20;55.10
20866;DHT22;10593;48.398;10.698;2023-01-13T14:42:03;11.20;55.10
20866;DHT22;10593;48.398;10.698;2023-01-13T14:44:36;11.20;55.10
20866;DHT22;10593;48.398;10.698;2023-01-13T14:47:23;11.20;55.10
20866;DHT22;10593;48.398;10.698;2023-01-13T14:50:41;11.20;55.00
20866;DHT22;10593;48.398;10.698;2023-01-13T14:52:54;11.20;55.00
20866;DHT22;10593;48.398;10.698;2023-01-13T14:55:32;11.20;55.00
20866;DHT22;10593;48.398;10.698;2023-01-13T15:00:46;11.20;55.00
20866;DHT22;10593;48.398;10.698;2023-01-13T15:03:17;11.10;54.80
20866;DHT22;10593;48.398;10.698;2023-01-13T15:05:49;11.10;54.70
20866;DHT22;10593;48.398;10.698;2023-01-13T15:08:28;11.10;54.70
20866;DHT22;10593;48.398;10.698;2023-01-13T15:13:32;11.10;54.70
20866;DHT22;10593;48.398;10.698;2023-01-13T15:16:15;11.10;54.60
20866;DHT22;10593;48.398;10.698;2023-01-13T15:18:44;11.10;54.60
20866;DHT22;10593;48.398;10.698;2023-01-13T15:21:09;11.10;54.50
20866;DHT22;10593;48.398;10.698;2023-01-13T15:23:35;11.10;54.60
20866;DHT22;10593;48.398;10.698;2023-01-13T15:26:22;11.10;54.50
20866;DHT22;10593;48.398;10.698;2023-01-13T15:28:50;11.00;54.50
20866;DHT22;10593;48.398;10.698;2023-01-13T15:31:21;11.10;54.50
20866;DHT22;10593;48.398;10.698;2023-01-13T15:33:47;11.10;54.40
20866;DHT22;10593;48.398;10.698;2023-01-13T15:36:18;11.00;54.30
20866;DHT22;10593;48.398;10.698;2023-01-13T15:38:44;11.00;54.30
20866;DHT22;10593;48.398;10.698;2023-01-13T15:41:09;11.00;54.20
20866;DHT22;10593;48.398;10.698;2023-01-13T15:43:35;11.00;54.80
20866;DHT22;10593;48.398;10.698;2023-01-13T15:46:20;11.00;54.20
20866;DHT22;10593;48.398;10.698;2023-01-13T15:49:20;11.00;54.20
20866;DHT22;10593;48.398;10.698;2023-01-13T15:51:49;11.00;54.10
20866;DHT22;10593;48.398;10.698;2023-01-13T15:54:15;11.00;54.10
20866;DHT22;10593;48.398;10.698;2023-01-13T15:56:40;10.90;54.00
20866;DHT22;10593;48.398;10.698;2023-01-13T15:59:15;11.00;54.10
20866;DHT22;10593;48.398;10.698;2023-01-13T16:01:46;10.90;54.00
20866;DHT22;10593;48.398;10.698;2023-01-13T16:04:12;10.90;54.00
20866;DHT22;10593;48.398;10.698;2023-01-13T16:06:37;10.90;54.00
20866;DHT22;10593;48.398;10.698;2023-01-13T16:09:04;10.90;54.00
20866;DHT22;10593;48.398;10.698;2023-01-13T16:11:30;10.90;54.00
20866;DHT22;10593;48.398;10.698;2023-01-13T16:13:55;10.80;53.90
20866;DHT22;10593;48.398;10.698;2023-01-13T16:16:24;10.80;53.90
20866;DHT22;10593;48.398;10.698;2023-01-13T16:18:52;10.80;53.90
20866;DHT22;10593;48.398;10.698;2023-01-13T16:21:19;10.80;53.80
20866;DHT22;10593;48.398;10.698;2023-01-13T16:23:49;10.80;53.80
20866;DHT22;10593;48.398;10.698;2023-01-13T16:28:46;10.80;53.70
20866;DHT22;10593;48.398;10.698;2023-01-13T16:31:18;10.80;53.80
20866;DHT22;10593;48.398;10.698;2023-01-13T16:33:47;10.80;53.70
20866;DHT22;10593;48.398;10.698;2023-01-13T16:36:14;10.70;53.70
20866;DHT22;10593;48.398;10.698;2023-01-13T16:38:42;10.70;53.70
20866;DHT22;10593;48.398;10.698;2023-01-13T16:41:08;10.70;53.70
20866;DHT22;10593;48.398;10.698;2023-01-13T16:43:34;10.70;53.70
20866;DHT22;10593;48.398;10.698;2023-01-13T16:46:00;10.70;53.70
20866;DHT22;10593;48.398;10.698;2023-01-13T16:48:26;10.70;53.70
20866;DHT22;10593;48.398;10.698;2023-01-13T16:50:51;10.70;53.70
20866;DHT22;10593;48.398;10.698;2023-01-13T16:53:17;10.70;53.70
20866;DHT22;10593;48.398;10.698;2023-01-13T16:55:43;10.60;53.60
20866;DHT22;10593;48.398;10.698;2023-01-13T16:58:19;10.60;53.60
20866;DHT22;10593;48.398;10.698;2023-01-13T17:00:46;10.60;53.60
20866;DHT22;10593;48.398;10.698;2023-01-13T17:03:15;10.60;53.70
20866;DHT22;10593;48.398;10.698;2023-01-13T17:05:43;10.60;53.70
20866;DHT22;10593;48.398;10.698;2023-01-13T17:08:12;10.60;53.70
20866;DHT22;10593;48.398;10.698;2023-01-13T17:10:42;10.60;53.70
20866;DHT22;10593;48.398;10.698;2023-01-13T17:13:08;10.60;53.80
20866;DHT22;10593;48.398;10.698;2023-01-13T17:15:35;10.50;53.70
20866;DHT22;10593;48.398;10.698;2023-01-13T17:18:01;10.50;53.70
20866;DHT22;10593;48.398;10.698;2023-01-13T17:20:27;10.50;53.70
20866;DHT22;10593;48.398;10.698;2023-01-13T17:22:53;10.50;53.70
20866;DHT22;10593;48.398;10.698;2023-01-13T17:25:19;10.50;53.70
20866;DHT22;10593;48.398;10.698;2023-01-13T17:27:45;10.50;53.70
20866;DHT22;10593;48.398;10.698;2023-01-13T17:30:11;10.50;53.70
20866;DHT22;10593;48.398;10.698;2023-01-13T17:32:40;10.40;53.60
20866;DHT22;10593;48.398;10.698;2023-01-13T17:35:07;10.40;53.70
20866;DHT22;10593;48.398;10.698;2023-01-13T17:37:33;10.40;53.70
20866;DHT22;10593;48.398;10.698;2023-01-13T17:39:59;10.40;53.70
20866;DHT22;10593;48.398;10.698;2023-01-13T17:42:25;10.40;53.70
20866;DHT22;10593;48.398;10.698;2023-01-13T17:44:53;10.40;53.70
20866;DHT22;10593;48.398;10.698;2023-01-13T17:47:19;10.40;53.70
20866;DHT22;10593;48.398;10.698;2023-01-13T17:49:45;10.40;53.70
20866;DHT22;10593;48.398;10.698;2023-01-13T17:52:11;10.40;53.70
20866;DHT22;10593;48.398;10.698;2023-01-13T17:54:37;10.40;53.70
20866;DHT22;10593;48.398;10.698;2023-01-13T17:57:04;10.30;53.60
20866;DHT22;10593;48.398;10.698;2023-01-13T17:59:30;10.30;53.60
20866;DHT22;10593;48.398;10.698;2023-01-13T18:01:56;10.30;53.60
20866;DHT22;10593;48.398;10.698;2023-01-13T18:04:24;10.30;53.60
20866;DHT22;10593;48.398;10.698;2023-01-13T18:06:52;10.30;53.80